Time;durP1;ratioP1;P1;durP2;ratioP2;P2;SDS_P1;SDS_P2;PMS_P1;PMS_P2;Temp;Humidity;BMP_temperature;BMP_pressure;BME280_temperature;BME280_humidity;BME280_pressure;Samples;Min_cycle;Max_cycle;Signal;HPM_P1;HPM_P2
2022/07/05 04:30:27;;;;;;;;;6.50;3.00;;;;;16.39;64.75;101922.09;5087360;27;45622;-72
2022/07/05 04:32:53;;;;;;;;;3.00;3.00;;;;;16.34;65.07;101928.66;5035763;28;45605;-76
2022/07/05 04:35:18;;;;;;;;;3.00;3.00;;;;;16.32;65.42;101926.06;5037055;28;45901;-73
2022/07/05 04:37:44;;;;;;;;;3.25;3.25;;;;;16.25;65.62;101925.47;5036700;28;45634;-72
2022/07/05 04:40:12;;;;;;;;;3.00;3.00;;;;;16.22;65.44;101928.34;5037267;28;45461;-76
2022/07/05 04:42:37;;;;;;;;;3.50;3.00;;;;;16.23;65.65;101929.25;5031039;28;45549;-74
2022/07/05 04:45:04;;;;;;;;;5.75;3.25;;;;;16.28;65.48;101932.56;5016812;28;45423;-75
2022/07/05 04:47:29;;;;;;;;;3.50;2.50;;;;;16.31;65.25;101934.25;5016611;28;45416;-72
2022/07/05 04:49:57;;;;;;;;;2.75;2.75;;;;;16.43;65.07;101930.91;5016693;28;45401;-74
2022/07/05 04:52:22;;;;;;;;;4.25;4.00;;;;;16.50;65.36;101935.06;5036217;28;45297;-72
2022/07/05 04:54:48;;;;;;;;;3.25;3.25;;;;;16.54;64.84;101928.53;5036380;28;45479;-72
2022/07/05 04:57:13;;;;;;;;;3.25;3.25;;;;;16.55;65.05;101939.28;5036103;28;45381;-72
2022/07/05 04:59:38;;;;;;;;;2.75;2.00;;;;;16.62;64.87;101935.34;5036672;28;45467;-74
2022/07/05 05:02:04;;;;;;;;;4.00;4.00;;;;;16.66;64.96;101941.47;5035908;28;45320;-71
2022/07/05 05:04:29;;;;;;;;;4.00;3.00;;;;;16.62;65.25;101932.63;5024362;28;46193;-73
2022/07/05 05:06:55;;;;;;;;;5.75;5.00;;;;;16.57;65.77;101941.91;5015326;28;45382;-74
2022/07/05 05:09:20;;;;;;;;;4.00;4.00;;;;;16.52;65.62;101939.44;5016600;28;45920;-75
2022/07/05 05:11:46;;;;;;;;;4.25;3.00;;;;;16.58;65.04;101939.13;5014747;28;46624;-73
2022/07/05 05:14:12;;;;;;;;;10.00;4.00;;;;;16.74;65.10;101941.06;5015925;28;46186;-75
2022/07/05 05:16:37;;;;;;;;;7.50;3.50;;;;;16.82;64.70;101944.25;5016141;28;45328;-71
2022/07/05 05:19:02;;;;;;;;;3.25;3.25;;;;;16.83;64.72;101946.00;5024914;28;45361;-72
2022/07/05 05:21:28;;;;;;;;;6.50;4.75;;;;;16.89;64.30;101935.72;5009321;28;45478;-73
2022/07/05 05:23:53;;;;;;;;;4.50;3.75;;;;;16.94;64.76;101941.75;5015717;28;49234;-73
2022/07/05 05:26:18;;;;;;;;;3.75;3.50;;;;;16.95;64.69;101954.34;5015861;28;45456;-72
2022/07/05 05:28:43;;;;;;;;;3.50;3.50;;;;;16.79;64.77;101950.69;5015548;28;45247;-71
2022/07/05 05:31:09;;;;;;;;;8.00;3.50;;;;;16.72;65.23;101945.69;5006157;28;45563;-75
2022/07/05 05:33:34;;;;;;;;;7.00;5.75;;;;;16.62;66.03;101950.69;5015781;28;45973;-72
2022/07/05 05:36:00;;;;;;;;;6.25;3.00;;;;;16.64;65.91;101954.22;5015591;28;45468;-73
2022/07/05 05:38:26;;;;;;;;;5.00;5.00;;;;;16.71;65.52;101938.50;5015990;28;45274;-70
2022/07/05 05:40:52;;;;;;;;;6.00;4.50;;;;;16.78;65.28;101951.66;5015667;28;45596;-70
2022/07/05 05:43:17;;;;;;;;;4.00;4.00;;;;;16.75;65.57;101957.25;5006717;28;47092;-70
2022/07/05 05:45:42;;;;;;;;;5.00;5.00;;;;;16.93;65.06;101958.97;5015327;28;45317;-72
2022/07/05 05:48:08;;;;;;;;;4.75;4.00;;;;;16.99;64.55;101950.53;5015650;28;45162;-71
2022/07/05 05:50:35;;;;;;;;;5.50;3.00;;;;;17.18;64.93;101969.34;5015229;28;45607;-72
2022/07/05 05:53:01;;;;;;;;;3.50;3.50;;;;;17.40;63.73;101974.50;5015497;28;46199;-73
2022/07/05 05:55:28;;;;;;;;;4.25;4.25;;;;;17.50;63.42;101969.47;5015367;28;45381;-73
2022/07/05 05:57:55;;;;;;;;;4.00;4.00;;;;;17.62;62.90;101966.97;5015422;28;45515;-72
2022/07/05 06:00:21;;;;;;;;;5.50;4.50;;;;;17.67;62.84;101974.84;5015190;28;45488;-69
2022/07/05 06:02:49;;;;;;;;;6.00;5.00;;;;;17.67;62.76;101986.56;5015008;28;46469;-72
2022/07/05 06:05:15;;;;;;;;;4.00;4.00;;;;;17.65;62.67;101979.47;5013813;28;47668;-71
2022/07/05 06:07:53;;;;;;;;;5.25;4.50;;;;;17.64;62.70;101965.03;5015198;28;45542;-73
2022/07/05 06:10:21;;;;;;;;;4.50;4.50;;;;;17.70;62.90;101971.94;5015030;28;45467;-75
2022/07/05 06:12:48;;;;;;;;;4.25;4.25;;;;;17.75;62.09;101972.59;5015162;28;45443;-72
2022/07/05 06:15:13;;;;;;;;;6.00;6.00;;;;;17.77;62.43;101962.53;5014951;28;45372;-73
2022/07/05 06:17:39;;;;;;;;;7.00;5.00;;;;;17.72;62.52;101959.19;5015439;28;45407;-72
2022/07/05 06:20:13;;;;;;;;;9.25;6.25;;;;;17.76;62.31;101969.78;5025901;28;45307;-73
2022/07/05 06:22:39;;;;;;;;;5.50;4.25;;;;;17.80;62.47;101964.16;5015165;28;45573;-73
2022/07/05 06:25:05;;;;;;;;;7.75;6.50;;;;;17.89;62.11;101977.22;5015117;28;45512;-72
2022/07/05 06:27:30;;;;;;;;;7.50;6.00;;;;;17.87;61.85;101965.56;5014748;28;45403;-74
2022/07/05 06:29:57;;;;;;;;;7.75;5.00;;;;;17.93;62.01;101973.38;5015062;28;45616;-73
2022/07/05 06:32:23;;;;;;;;;6.50;5.75;;;;;17.88;61.94;101965.50;5014574;28;45345;-73
2022/07/05 06:34:48;;;;;;;;;6.75;5.00;;;;;17.87;62.19;101965.56;5013325;28;45334;-74
2022/07/05 06:37:13;;;;;;;;;8.75;5.75;;;;;17.91;62.38;101972.59;5015002;28;45512;-71
2022/07/05 06:39:38;;;;;;;;;7.00;5.75;;;;;17.95;62.10;101975.03;5015106;28;45563;-73
2022/07/05 06:42:04;;;;;;;;;5.25;4.25;;;;;17.98;61.79;101973.97;5014442;28;46087;-73
2022/07/05 06:44:30;;;;;;;;;4.75;4.75;;;;;18.02;62.08;101971.03;5014920;28;45252;-74
2022/07/05 06:46:55;;;;;;;;;7.75;7.75;;;;;18.15;62.16;101985.63;5015092;28;46139;-73
2022/07/05 06:49:20;;;;;;;;;5.50;5.50;;;;;18.18;61.77;101987.28;5014513;28;45550;-74
2022/07/05 06:51:46;;;;;;;;;5.25;5.25;;;;;18.23;61.34;101982.47;5014648;28;46388;-73
2022/07/05 06:54:11;;;;;;;;;6.75;5.00;;;;;18.29;61.26;101984.81;5014490;28;45351;-73
2022/07/05 06:56:36;;;;;;;;;6.50;6.50;;;;;18.38;60.70;101988.81;4996659;28;45440;-73
2022/07/05 06:59:02;;;;;;;;;7.75;7.25;;;;;18.35;60.90;101986.31;4996746;28;45974;-73
2022/07/05 07:01:27;;;;;;;;;5.00;5.00;;;;;18.30;60.99;101983.84;5014163;28;46064;-73
2022/07/05 07:03:53;;;;;;;;;4.00;4.00;;;;;18.36;60.79;101988.06;5014092;28;45277;-73
2022/07/05 07:06:19;;;;;;;;;8.50;6.00;;;;;18.35;61.12;101978.16;5014383;28;45404;-73
2022/07/05 07:11:29;;;;;;;;;4.50;4.50;;;;;18.42;60.60;101987.69;5014155;28;45301;-73
2022/07/05 07:13:54;;;;;;;;;17.75;14.25;;;;;18.39;61.06;101980.59;5013981;28;45345;-73
2022/07/05 07:16:20;;;;;;;;;8.00;7.00;;;;;18.47;60.92;101989.16;5014312;28;45341;-74
2022/07/05 07:18:45;;;;;;;;;7.00;6.00;;;;;18.48;60.38;101984.59;5020583;28;45476;-73
2022/07/05 07:21:10;;;;;;;;;8.25;7.00;;;;;18.43;60.53;101973.16;5028897;28;45969;-73
2022/07/05 07:23:36;;;;;;;;;18.25;11.00;;;;;18.53;60.08;101979.78;5014081;28;46332;-74
2022/07/05 07:26:01;;;;;;;;;7.25;6.25;;;;;18.62;60.42;101987.44;5014003;28;45467;-74
2022/07/05 07:28:28;;;;;;;;;6.25;5.75;;;;;18.69;59.84;101988.81;5013974;28;45419;-74
2022/07/05 07:30:53;;;;;;;;;6.00;6.00;;;;;18.80;60.05;101990.84;5015634;28;46254;-73
2022/07/05 07:33:19;;;;;;;;;5.75;5.75;;;;;18.83;59.42;101986.13;5017753;28;45355;-73
2022/07/05 07:35:44;;;;;;;;;11.75;8.00;;;;;18.87;59.32;101990.41;5017470;28;45521;-73
2022/07/05 07:38:09;;;;;;;;;8.75;8.00;;;;;18.85;59.46;101991.47;5017710;28;45498;-72
2022/07/05 07:40:35;;;;;;;;;5.75;5.75;;;;;18.88;59.23;101994.00;5017682;28;45373;-73
2022/07/05 07:43:00;;;;;;;;;7.25;6.25;;;;;18.95;59.35;101997.22;5017547;28;45276;-73
2022/07/05 07:45:27;;;;;;;;;7.75;5.75;;;;;18.95;59.01;101995.38;5017307;28;45404;-73
2022/07/05 07:47:53;;;;;;;;;7.25;5.00;;;;;18.95;58.79;101980.91;5017587;28;45542;-72
2022/07/05 07:50:18;;;;;;;;;8.50;8.50;;;;;19.06;58.91;102001.00;5017137;28;45497;-72
2022/07/05 07:52:44;;;;;;;;;5.50;5.50;;;;;19.15;58.83;102002.28;5017582;28;45280;-72
2022/07/05 07:55:10;;;;;;;;;6.50;6.00;;;;;19.24;58.86;102004.44;5017519;28;45321;-75
2022/07/05 07:57:35;;;;;;;;;5.00;5.00;;;;;19.33;58.61;102005.72;5017120;28;45561;-72
2022/07/05 08:00:01;;;;;;;;;4.25;4.25;;;;;19.40;57.90;102007.06;5017337;28;45498;-74
2022/07/05 08:02:26;;;;;;;;;6.00;5.50;;;;;19.41;57.65;102014.28;5017522;28;45308;-75
2022/07/05 08:04:53;;;;;;;;;8.25;7.75;;;;;19.40;57.94;102012.50;5017226;28;45468;-73
2022/07/05 08:07:19;;;;;;;;;6.00;6.00;;;;;19.43;57.55;102001.47;5017720;28;45396;-73
2022/07/05 08:09:45;;;;;;;;;9.00;7.00;;;;;19.53;57.04;102013.53;5016974;28;45369;-74
2022/07/05 08:12:11;;;;;;;;;7.75;6.50;;;;;19.53;56.65;102006.25;5016922;28;45359;-75
2022/07/05 08:14:36;;;;;;;;;5.00;5.00;;;;;19.52;56.36;102000.91;5016948;28;45376;-73
2022/07/05 08:17:01;;;;;;;;;7.25;7.00;;;;;19.59;56.53;101996.81;5017114;28;45484;-74
2022/07/05 08:22:11;;;;;;;;;7.50;6.25;;;;;19.71;56.65;101996.06;5016938;28;45230;-74
2022/07/05 08:24:39;;;;;;;;;6.50;5.00;;;;;19.76;56.05;101993.03;5016551;28;45318;-73
2022/07/05 08:27:05;;;;;;;;;6.00;6.00;;;;;19.81;55.65;101991.78;5016389;28;45290;-73
2022/07/05 08:29:30;;;;;;;;;2.50;2.50;;;;;19.84;55.53;101979.78;5016592;28;45360;-73
2022/07/05 08:31:56;;;;;;;;;6.50;5.00;;;;;19.90;55.29;101987.56;5016820;28;45440;-74
2022/07/05 08:34:21;;;;;;;;;4.25;4.00;;;;;19.91;55.10;101976.56;5017074;28;45314;-73
2022/07/05 08:36:47;;;;;;;;;6.25;5.00;;;;;19.91;54.95;101979.28;5016853;28;45395;-73
2022/07/05 08:39:14;;;;;;;;;4.75;4.75;;;;;20.01;54.67;101977.72;5016402;28;45497;-74
2022/07/05 08:41:41;;;;;;;;;4.50;2.00;;;;;20.07;54.77;101983.75;5015274;28;45314;-73
2022/07/05 08:44:08;;;;;;;;;5.25;5.25;;;;;20.08;54.74;101975.47;5015941;28;45456;-74
2022/07/05 08:46:37;;;;;;;;;6.50;5.50;;;;;20.13;54.23;101980.63;5016504;28;45347;-72
2022/07/05 08:49:06;;;;;;;;;3.00;3.00;;;;;20.18;53.94;101984.78;5016426;28;45799;-73
2022/07/05 08:51:38;;;;;;;;;3.50;3.50;;;;;20.20;53.53;101984.66;5016473;28;45305;-71
2022/07/05 08:54:05;;;;;;;;;2.75;2.75;;;;;20.26;52.86;101978.81;5016181;28;45377;-74
2022/07/05 08:56:30;;;;;;;;;3.75;3.25;;;;;20.28;53.13;101980.47;5016410;28;45571;-73
2022/07/05 08:58:56;;;;;;;;;2.75;2.25;;;;;20.23;52.89;101958.13;5015828;28;45681;-72
2022/07/05 09:01:22;;;;;;;;;4.00;4.00;;;;;20.37;51.78;101976.28;5016268;28;45326;-74
2022/07/05 09:03:50;;;;;;;;;3.50;3.50;;;;;20.35;51.17;101961.88;5016165;28;45551;-74
2022/07/05 09:06:19;;;;;;;;;2.75;2.50;;;;;20.46;50.44;101975.66;5015861;28;45357;-72
2022/07/05 09:08:47;;;;;;;;;7.00;3.00;;;;;20.45;50.90;101970.31;5016022;28;45323;-73
2022/07/05 09:11:14;;;;;;;;;4.50;3.50;;;;;20.52;51.20;101966.19;5015668;28;45226;-73
2022/07/05 09:13:43;;;;;;;;;4.25;4.25;;;;;20.59;51.33;101970.22;5016072;28;45432;-73
2022/07/05 09:16:09;;;;;;;;;3.25;3.25;;;;;20.62;50.64;101970.03;5016273;28;45400;-73
2022/07/05 09:18:54;;;;;;;;;3.00;3.00;;;;;20.67;50.35;101971.47;5020913;28;45407;-73
2022/07/05 09:21:24;;;;;;;;;5.00;4.00;;;;;20.71;50.60;101970.28;5018511;28;45735;-74
2022/07/05 09:24:09;;;;;;;;;7.25;6.00;;;;;20.74;51.18;101975.53;5016159;28;45357;-74
2022/07/05 09:26:35;;;;;;;;;4.25;4.25;;;;;20.81;51.27;101977.81;5016061;28;45466;-73
2022/07/05 09:29:03;;;;;;;;;7.00;3.00;;;;;20.83;50.89;101976.75;5015792;28;46160;-72
2022/07/05 09:31:29;;;;;;;;;4.00;4.00;;;;;20.89;50.71;101984.50;5016207;28;45408;-73
2022/07/05 09:34:02;;;;;;;;;4.75;3.25;;;;;20.93;50.42;101979.69;5016187;28;45229;-74
2022/07/05 09:36:46;;;;;;;;;5.75;3.75;;;;;20.95;50.23;101977.72;5015818;28;45270;-74
2022/07/05 09:39:11;;;;;;;;;5.00;4.50;;;;;20.93;50.17;101955.16;5015581;28;46292;-73
2022/07/05 09:41:36;;;;;;;;;4.25;4.25;;;;;20.98;50.46;101963.91;5015792;28;45285;-73
2022/07/05 09:44:02;;;;;;;;;6.00;6.00;;;;;21.09;49.36;101974.94;5015140;28;45337;-74
2022/07/05 09:46:30;;;;;;;;;4.75;4.75;;;;;21.13;49.01;101969.13;5015752;28;45500;-75
2022/07/05 09:48:56;;;;;;;;;2.50;2.50;;;;;21.13;49.23;101957.34;4997703;28;47355;-74
2022/07/05 09:51:21;;;;;;;;;4.25;4.25;;;;;21.20;48.47;101977.78;5015628;28;45249;-76
2022/07/05 09:53:54;;;;;;;;;4.00;4.00;;;;;21.20;48.50;101976.91;5015307;28;45270;-74
2022/07/05 09:56:20;;;;;;;;;3.00;3.00;;;;;21.22;48.65;101973.09;5015814;28;45498;-73
2022/07/05 09:58:46;;;;;;;;;6.00;4.00;;;;;21.24;49.07;101984.78;5015102;28;45328;-74
2022/07/05 10:01:28;;;;;;;;;7.75;4.75;;;;;21.26;48.82;101980.09;4997419;28;46326;-73
2022/07/05 10:03:58;;;;;;;;;4.25;4.25;;;;;21.28;49.22;101978.09;5015738;28;45423;-73
2022/07/05 10:06:25;;;;;;;;;5.75;4.75;;;;;21.34;49.27;101982.28;5014998;28;45440;-73
2022/07/05 10:08:52;;;;;;;;;5.75;5.75;;;;;21.39;49.03;101985.53;5015064;28;46519;-73
2022/07/05 10:11:21;;;;;;;;;1.75;1.75;;;;;21.43;48.12;101978.88;5015052;28;45254;-74
2022/07/05 10:13:51;;;;;;;;;4.50;4.50;;;;;21.48;47.80;101979.41;5015222;28;45444;-73
2022/07/05 10:16:18;;;;;;;;;3.50;3.50;;;;;21.53;48.32;101969.03;5014812;28;45499;-73
2022/07/05 10:18:46;;;;;;;;;6.50;4.75;;;;;21.57;48.27;101975.16;5021275;28;45487;-73
2022/07/05 10:21:17;;;;;;;;;4.50;4.50;;;;;21.64;48.28;101980.06;5019546;28;45339;-74
2022/07/05 10:23:44;;;;;;;;;4.00;4.00;;;;;21.67;48.02;101979.84;5013509;28;45365;-73
2022/07/05 10:26:11;;;;;;;;;5.00;4.25;;;;;21.70;47.93;101965.94;5014593;28;45947;-73
2022/07/05 10:28:40;;;;;;;;;6.00;5.75;;;;;21.73;48.07;101971.19;5014807;28;45338;-74
2022/07/05 10:31:08;;;;;;;;;4.00;4.00;;;;;21.78;47.49;101985.38;5014851;28;45423;-74
2022/07/05 10:33:34;;;;;;;;;4.00;4.00;;;;;21.77;47.19;101972.72;5014962;28;45283;-73
2022/07/05 10:36:00;;;;;;;;;5.25;5.25;;;;;21.81;48.09;101971.50;5014626;28;45365;-74
2022/07/05 10:38:26;;;;;;;;;5.00;5.00;;;;;21.91;48.19;101974.44;5014689;28;45337;-73
2022/07/05 10:40:57;;;;;;;;;8.00;5.50;;;;;21.97;47.92;101967.63;5014740;28;45396;-73
2022/07/05 10:43:24;;;;;;;;;5.75;5.00;;;;;21.98;47.09;101953.03;5013104;28;45310;-73
2022/07/05 10:45:50;;;;;;;;;9.25;7.50;;;;;22.07;46.74;101969.59;5014413;28;46183;-74
2022/07/05 10:48:17;;;;;;;;;5.00;5.00;;;;;22.12;46.48;101963.78;5013086;28;46424;-73
2022/07/05 10:50:48;;;;;;;;;4.00;4.00;;;;;22.15;46.50;101958.97;5014417;28;45389;-73
2022/07/05 10:53:14;;;;;;;;;3.25;3.25;;;;;22.20;46.43;101964.09;5014639;28;45394;-72
2022/07/05 10:55:57;;;;;;;;;3.25;3.00;;;;;22.25;46.56;101962.75;5014454;28;45487;-73
2022/07/05 10:58:31;;;;;;;;;5.00;5.00;;;;;22.29;45.75;101954.34;5014283;28;45496;-72
2022/07/05 11:01:11;;;;;;;;;6.00;6.00;;;;;22.34;45.85;101954.84;5014652;28;45404;-73
2022/07/05 11:03:44;;;;;;;;;3.25;3.25;;;;;22.39;46.26;101960.81;5008094;28;45440;-73
2022/07/05 11:06:22;;;;;;;;;3.25;3.00;;;;;22.44;46.18;101958.63;5005855;28;45298;-72
2022/07/05 11:08:56;;;;;;;;;3.50;3.50;;;;;22.48;45.92;101946.47;5014267;28;46629;-73
2022/07/05 11:11:29;;;;;;;;;4.75;4.75;;;;;22.53;45.91;101956.06;5014100;28;45359;-73
2022/07/05 11:13:55;;;;;;;;;5.75;5.75;;;;;22.51;45.79;101946.25;5014292;28;45351;-73
2022/07/05 11:16:24;;;;;;;;;3.50;3.50;;;;;22.62;44.92;101949.91;5014282;28;45547;-72
2022/07/05 11:18:52;;;;;;;;;3.00;3.00;;;;;22.63;44.61;101946.16;5021299;28;45531;-73
2022/07/05 11:21:18;;;;;;;;;3.00;3.00;;;;;22.72;44.24;101971.91;5018368;28;45269;-73
2022/07/05 11:23:43;;;;;;;;;4.00;4.00;;;;;22.71;44.26;101950.19;5014466;28;45370;-74
2022/07/05 11:26:10;;;;;;;;;5.00;4.75;;;;;22.78;43.49;101943.25;5013908;28;45301;-73
2022/07/05 11:28:47;;;;;;;;;4.00;4.00;;;;;22.83;42.46;101941.91;5014120;28;46443;-72
2022/07/05 11:31:32;;;;;;;;;5.50;5.50;;;;;22.82;42.84;101948.34;5013896;28;45376;-74
2022/07/05 11:34:14;;;;;;;;;4.75;4.75;;;;;22.89;42.92;101948.75;5014070;28;45455;-74
2022/07/05 11:36:40;;;;;;;;;4.00;4.00;;;;;22.91;43.64;101938.56;5014318;28;45270;-72
2022/07/05 11:39:15;;;;;;;;;4.00;2.75;;;;;23.01;43.48;101947.78;5013548;28;45873;-71
2022/07/05 11:41:42;;;;;;;;;5.00;5.00;;;;;23.04;43.17;101936.63;5014055;28;45435;-74
2022/07/05 11:44:10;;;;;;;;;4.00;4.00;;;;;23.11;42.58;101943.34;5013837;28;45258;-73
2022/07/05 11:46:36;;;;;;;;;4.00;4.00;;;;;23.11;43.51;101931.53;5013986;28;45385;-73
2022/07/05 11:49:01;;;;;;;;;3.50;3.50;;;;;23.22;43.43;101932.38;5013701;28;45478;-73
2022/07/05 11:51:27;;;;;;;;;4.75;4.75;;;;;23.33;42.31;101935.13;4995940;28;45403;-73
2022/07/05 11:53:52;;;;;;;;;3.00;3.00;;;;;23.40;42.75;101932.78;5013640;28;45487;-73
2022/07/05 11:56:18;;;;;;;;;4.00;4.00;;;;;23.42;42.31;101924.44;5013885;28;45329;-73
2022/07/05 11:58:43;;;;;;;;;3.00;3.00;;;;;23.45;42.49;101921.47;5013250;28;46212;-73
2022/07/05 12:01:08;;;;;;;;;4.00;4.00;;;;;23.47;42.30;101914.88;5013876;28;45445;-73
2022/07/05 12:03:34;;;;;;;;;2.50;2.50;;;;;23.51;42.01;101899.97;5013254;28;47032;-73
2022/07/05 12:06:10;;;;;;;;;4.75;4.00;;;;;23.64;42.10;101919.00;5013645;28;45539;-73
2022/07/05 12:08:36;;;;;;;;;3.00;3.00;;;;;23.70;41.78;101921.22;5013392;28;45452;-73
2022/07/05 12:13:48;;;;;;;;;4.00;4.00;;;;;23.79;41.61;101912.25;5012784;28;45412;-73
2022/07/05 12:16:14;;;;;;;;;3.75;2.50;;;;;23.88;41.49;101907.88;5014411;28;45551;-73
2022/07/05 12:18:52;;;;;;;;;3.25;3.25;;;;;23.98;41.62;101917.94;5022595;28;47424;-73
2022/07/05 12:21:21;;;;;;;;;4.25;4.00;;;;;24.09;41.74;101922.50;5020459;28;45329;-73
2022/07/05 12:23:48;;;;;;;;;3.75;3.00;;;;;24.17;41.62;101902.66;5017623;28;45485;-73
2022/07/05 12:26:18;;;;;;;;;3.50;3.50;;;;;24.27;41.28;101901.78;5016775;28;45341;-72
2022/07/05 12:28:45;;;;;;;;;4.00;4.00;;;;;24.31;40.34;101892.31;5016544;28;46296;-73
2022/07/05 12:31:16;;;;;;;;;3.00;3.00;;;;;24.46;40.39;101903.84;5016659;28;45523;-73
2022/07/05 12:33:42;;;;;;;;;5.25;2.75;;;;;24.39;39.90;101886.19;5016996;28;45444;-73
2022/07/05 12:36:13;;;;;;;;;2.00;2.00;;;;;24.49;39.75;101895.38;5016400;28;45412;-72
2022/07/05 12:38:38;;;;;;;;;3.50;3.50;;;;;24.56;40.02;101902.06;5016471;28;46209;-73
2022/07/05 12:41:03;;;;;;;;;3.00;3.00;;;;;24.65;39.90;101905.88;5016467;28;45303;-73
2022/07/05 12:43:29;;;;;;;;;3.50;3.50;;;;;24.71;39.54;101916.28;5016570;28;45477;-73
2022/07/05 12:46:07;;;;;;;;;3.25;3.25;;;;;24.77;39.43;101899.28;5016361;28;45612;-73
2022/07/05 12:48:43;;;;;;;;;2.50;2.50;;;;;24.81;39.27;101904.41;5016352;28;46130;-72
2022/07/05 12:51:10;;;;;;;;;5.50;3.00;;;;;24.83;39.01;101909.75;5016538;28;45338;-72
2022/07/05 12:59:12;;;;;;;;;2.75;2.75;;;;;24.99;38.74;101901.06;5016478;28;45395;-72
2022/07/05 13:01:42;;;;;;;;;2.50;2.50;;;;;25.09;38.40;101910.22;5016094;28;45333;-74
2022/07/05 13:04:16;;;;;;;;;2.75;2.75;;;;;25.21;38.13;101900.91;5016403;28;45340;-73
2022/07/05 13:06:48;;;;;;;;;3.50;2.25;;;;;25.30;37.60;101888.22;4998067;28;45457;-73
2022/07/05 13:09:15;;;;;;;;;2.25;1.75;;;;;25.35;37.71;101888.69;5016363;28;45866;-73
2022/07/05 13:11:42;;;;;;;;;3.00;3.00;;;;;25.30;37.15;101878.09;5015789;28;45366;-73
2022/07/05 13:14:07;;;;;;;;;3.50;2.50;;;;;25.35;37.06;101884.03;5016325;28;45491;-74
2022/07/05 13:16:33;;;;;;;;;2.00;2.00;;;;;25.41;37.69;101888.13;5016038;28;45420;-73
2022/07/05 13:19:11;;;;;;;;;3.25;3.25;;;;;25.48;37.32;101889.31;5027959;28;45279;-73
2022/07/05 13:21:37;;;;;;;;;5.00;3.75;;;;;25.42;36.63;101877.00;5018048;28;45391;-72
2022/07/05 13:24:03;;;;;;;;;2.75;2.75;;;;;25.53;37.85;101890.63;5016901;28;45335;-73
2022/07/05 13:26:28;;;;;;;;;3.00;3.00;;;;;25.55;36.76;101882.25;5015639;28;46361;-72
2022/07/05 13:28:54;;;;;;;;;2.00;2.00;;;;;25.62;37.11;101887.06;5015081;28;46314;-72
2022/07/05 13:31:19;;;;;;;;;1.75;1.75;;;;;25.75;36.60;101889.56;5015588;28;45483;-73
2022/07/05 13:33:46;;;;;;;;;4.25;3.00;;;;;25.83;36.65;101899.84;5016189;28;45464;-73
2022/07/05 13:36:11;;;;;;;;;2.25;2.25;;;;;25.80;36.49;101894.63;5015747;28;45212;-73
2022/07/05 13:38:36;;;;;;;;;2.25;2.25;;;;;25.80;35.83;101894.63;5015635;28;45420;-74
2022/07/05 13:41:02;;;;;;;;;2.25;2.25;;;;;25.93;35.67;101898.88;5015739;28;45467;-73
2022/07/05 13:43:27;;;;;;;;;3.75;3.75;;;;;26.03;34.77;101895.28;5008925;28;45337;-72
2022/07/05 13:45:52;;;;;;;;;2.25;2.25;;;;;26.19;35.18;101901.09;5015416;28;45880;-73
2022/07/05 13:48:18;;;;;;;;;1.75;1.75;;;;;26.25;35.28;101889.50;5015801;28;45254;-73
2022/07/05 13:50:43;;;;;;;;;2.00;2.00;;;;;26.41;34.99;101900.81;5015527;28;45496;-73
2022/07/05 13:53:08;;;;;;;;;2.00;1.75;;;;;26.55;33.64;101894.00;5015801;28;45418;-73
2022/07/05 13:55:34;;;;;;;;;2.75;2.75;;;;;26.65;33.85;101901.22;5015283;28;48514;-73
2022/07/05 13:57:59;;;;;;;;;3.75;3.00;;;;;26.75;33.59;101882.84;5015323;28;45196;-73
2022/07/05 14:00:25;;;;;;;;;2.00;2.00;;;;;26.94;33.24;101881.09;5015349;28;45460;-72
2022/07/05 14:02:51;;;;;;;;;4.00;3.50;;;;;27.03;33.17;101869.19;5035474;28;45489;-73
2022/07/05 14:05:18;;;;;;;;;4.50;3.00;;;;;27.26;32.86;101883.44;5016768;28;45309;-71
2022/07/05 14:07:43;;;;;;;;;3.00;3.00;;;;;27.42;32.96;101881.78;5014967;28;46200;-73
2022/07/05 14:10:09;;;;;;;;;4.50;2.00;;;;;27.59;31.99;101884.75;5015086;28;45436;-73
2022/07/05 14:12:34;;;;;;;;;3.50;3.50;;;;;27.81;31.54;101882.47;5015082;28;45376;-73
2022/07/05 14:14:59;;;;;;;;;2.00;2.00;;;;;27.97;30.89;101883.69;5015345;28;45468;-73
2022/07/05 14:17:25;;;;;;;;;1.50;1.50;;;;;28.08;31.12;101887.06;5015691;28;45423;-72
2022/07/05 14:19:50;;;;;;;;;2.25;2.25;;;;;28.02;30.35;101873.03;5026176;28;45569;-73
2022/07/05 14:22:16;;;;;;;;;2.75;2.75;;;;;27.96;31.91;101871.78;5015639;28;45510;-73
2022/07/05 14:24:41;;;;;;;;;3.00;2.00;;;;;27.92;32.09;101888.78;5015021;28;45302;-73
2022/07/05 14:27:09;;;;;;;;;3.00;3.00;;;;;27.82;31.04;101875.03;5014824;28;45398;-73
2022/07/05 14:29:35;;;;;;;;;3.50;3.50;;;;;27.86;30.65;101871.84;5014764;28;45297;-71
2022/07/05 14:32:00;;;;;;;;;4.50;3.50;;;;;28.12;29.49;101882.97;5015083;28;45327;-73
2022/07/05 14:34:28;;;;;;;;;1.75;1.75;;;;;28.39;29.42;101881.19;5014841;28;45443;-72
2022/07/05 14:36:54;;;;;;;;;1.75;1.75;;;;;28.66;28.77;101864.53;5015127;28;45492;-72
2022/07/05 14:39:19;;;;;;;;;4.00;4.00;;;;;28.95;29.49;101856.81;5014704;28;45324;-72
2022/07/05 14:41:45;;;;;;;;;4.00;2.00;;;;;29.12;29.42;101866.06;5015136;28;45337;-73
2022/07/05 14:44:11;;;;;;;;;2.25;2.25;;;;;29.21;29.17;101850.41;5014467;28;45223;-73
2022/07/05 14:46:36;;;;;;;;;2.00;2.00;;;;;29.19;28.49;101850.56;5014583;28;46052;-73
2022/07/05 14:49:01;;;;;;;;;3.00;2.00;;;;;29.22;28.53;101865.94;5014558;28;45183;-72
2022/07/05 14:51:27;;;;;;;;;3.00;3.00;;;;;29.27;28.53;101863.53;5014869;28;45289;-72
2022/07/05 14:53:52;;;;;;;;;4.00;3.00;;;;;29.21;28.41;101872.50;4996402;28;45498;-74
2022/07/05 14:56:18;;;;;;;;;3.00;3.00;;;;;29.24;28.77;101859.25;5014558;28;45416;-73
2022/07/05 14:58:43;;;;;;;;;3.25;2.25;;;;;29.31;28.38;101851.16;4996157;28;45402;-72
2022/07/05 15:01:09;;;;;;;;;2.00;2.00;;;;;29.48;28.03;101858.50;5014487;28;45321;-73
2022/07/05 15:03:34;;;;;;;;;3.00;3.00;;;;;29.55;27.84;101861.47;5014157;28;45317;-73
2022/07/05 15:06:03;;;;;;;;;5.75;2.00;;;;;29.63;27.33;101859.59;5014242;28;45277;-73
2022/07/05 15:08:28;;;;;;;;;2.75;2.75;;;;;29.44;27.60;101856.22;5029749;28;45412;-73
2022/07/05 15:10:54;;;;;;;;;4.00;3.00;;;;;29.44;28.47;101867.28;5034762;28;45280;-73
2022/07/05 15:13:19;;;;;;;;;2.00;2.00;;;;;29.49;27.28;101863.00;5033851;28;45578;-72
2022/07/05 15:15:44;;;;;;;;;2.00;2.00;;;;;29.59;27.34;101862.88;5034268;28;45934;-73
2022/07/05 15:18:10;;;;;;;;;2.75;2.75;;;;;29.60;27.20;101848.03;5034295;28;45327;-72
2022/07/05 15:20:35;;;;;;;;;2.75;2.75;;;;;29.80;27.29;101856.88;5023765;28;45398;-73
2022/07/05 15:23:00;;;;;;;;;3.75;2.00;;;;;29.90;27.26;101849.31;5033778;28;45292;-73
2022/07/05 15:25:26;;;;;;;;;2.25;2.25;;;;;29.88;26.73;101838.41;5034033;28;45316;-73
2022/07/05 15:27:51;;;;;;;;;3.25;3.25;;;;;29.70;27.17;101834.91;5016099;28;45370;-73
2022/07/05 15:30:17;;;;;;;;;3.50;2.75;;;;;29.51;28.03;101855.44;5034042;28;45289;-72
2022/07/05 15:32:43;;;;;;;;;3.00;3.00;;;;;29.38;27.65;101852.25;5033592;28;45502;-73
2022/07/05 15:35:09;;;;;;;;;4.00;3.00;;;;;29.28;28.30;101840.41;5034040;28;45249;-73
2022/07/05 15:37:35;;;;;;;;;3.75;1.75;;;;;29.34;28.56;101843.41;5033992;28;45579;-73
2022/07/05 15:40:01;;;;;;;;;2.75;2.75;;;;;29.48;27.19;101850.22;5034322;28;45329;-72
2022/07/05 15:42:27;;;;;;;;;2.50;2.00;;;;;29.60;27.42;101848.88;5011497;28;45536;-73
2022/07/05 15:44:52;;;;;;;;;2.00;2.00;;;;;29.67;27.54;101844.44;5013581;28;45420;-72
2022/07/05 15:47:17;;;;;;;;;3.00;3.00;;;;;29.73;27.01;101849.28;5013997;28;45377;-73
2022/07/05 15:49:43;;;;;;;;;5.25;4.00;;;;;29.84;26.41;101852.75;5014044;28;45266;-72
2022/07/05 15:52:08;;;;;;;;;3.00;3.00;;;;;29.96;26.05;101849.53;5016363;28;45447;-73
2022/07/05 15:54:34;;;;;;;;;2.00;2.00;;;;;30.12;26.63;101847.81;5017404;28;46083;-73
2022/07/05 15:56:59;;;;;;;;;1.75;1.75;;;;;30.26;26.76;101841.63;5017239;28;45349;-73
2022/07/05 15:59:25;;;;;;;;;5.50;2.75;;;;;30.35;26.72;101833.16;5017547;28;45256;-74
2022/07/05 16:01:51;;;;;;;;;1.00;1.00;;;;;30.51;25.49;101843.38;5016943;28;45483;-72
2022/07/05 16:04:17;;;;;;;;;2.00;1.00;;;;;30.59;25.73;101839.75;5017349;28;45276;-73
2022/07/05 16:06:42;;;;;;;;;3.00;3.00;;;;;30.43;25.73;101840.59;5017036;28;45233;-73